St Thomas, Virgin Islands
Current Conditions -  °F | °C
As of 8:00 PM on Friday 19 Dec 2014 (Local Time) from TUPJ Reporting Station
Few Clouds Few Clouds  
Wind Chill: 25°   Ceiling: Unl
Heat Index: 26°   Visibility: 6mi
Dew Point: 21°   Wind: 6mph
Humidity: 78%   Direction: 90°E
Pressure: 30"   Gusts: NA
Location:  18.3436°N, 64.9322°W
Report Text: TUPJ 200000Z 09005KT 9999 FEW022 25/21 Q1016 RMK A3001
Loading
Personal Weather Stations






























Interactive Weather Map New forecast layout! Learn more

10-Day Weather Forecast

Advertisements
Track Severe Weather on mobile